sensor_id;sensor_type;location;lat;lon;timestamp;P1;durP1;ratioP1;P2;durP2;ratioP2
26040;SDS011;13816;53.628;9.950;2023-11-19T00:00:08;12.80;;;9.80;;
26040;SDS011;13816;53.628;9.950;2023-11-19T00:02:42;11.70;;;8.17;;
26040;SDS011;13816;53.628;9.950;2023-11-19T00:05:10;11.17;;;8.60;;
26040;SDS011;13816;53.628;9.950;2023-11-19T00:07:39;10.50;;;8.20;;
26040;SDS011;13816;53.628;9.950;2023-11-19T00:12:41;10.00;;;7.70;;
26040;SDS011;13816;53.628;9.950;2023-11-19T00:15:09;12.43;;;8.70;;
26040;SDS011;13816;53.628;9.950;2023-11-19T00:17:38;9.03;;;7.40;;
26040;SDS011;13816;53.628;9.950;2023-11-19T00:20:19;9.83;;;7.40;;
26040;SDS011;13816;53.628;9.950;2023-11-19T00:22:49;11.03;;;8.00;;
26040;SDS011;13816;53.628;9.950;2023-11-19T00:25:20;12.73;;;7.50;;
26040;SDS011;13816;53.628;9.950;2023-11-19T00:27:48;9.50;;;7.40;;
26040;SDS011;13816;53.628;9.950;2023-11-19T00:30:17;8.83;;;7.80;;
26040;SDS011;13816;53.628;9.950;2023-11-19T00:32:44;7.73;;;6.80;;
26040;SDS011;13816;53.628;9.950;2023-11-19T00:35:12;8.30;;;7.33;;
26040;SDS011;13816;53.628;9.950;2023-11-19T00:37:41;10.40;;;7.53;;
26040;SDS011;13816;53.628;9.950;2023-11-19T00:40:15;8.53;;;6.67;;
26040;SDS011;13816;53.628;9.950;2023-11-19T00:42:45;7.10;;;5.70;;
26040;SDS011;13816;53.628;9.950;2023-11-19T00:45:12;9.27;;;6.10;;
26040;SDS011;13816;53.628;9.950;2023-11-19T00:47:40;6.97;;;5.73;;
26040;SDS011;13816;53.628;9.950;2023-11-19T00:50:08;6.23;;;5.33;;
26040;SDS011;13816;53.628;9.950;2023-11-19T00:52:36;5.93;;;5.20;;
26040;SDS011;13816;53.628;9.950;2023-11-19T00:55:04;9.93;;;5.60;;
26040;SDS011;13816;53.628;9.950;2023-11-19T00:57:32;6.67;;;5.67;;
26040;SDS011;13816;53.628;9.950;2023-11-19T00:59:59;5.80;;;5.10;;
26040;SDS011;13816;53.628;9.950;2023-11-19T01:02:28;6.17;;;4.60;;
26040;SDS011;13816;53.628;9.950;2023-11-19T01:04:56;4.50;;;4.10;;
26040;SDS011;13816;53.628;9.950;2023-11-19T01:07:23;5.00;;;4.50;;
26040;SDS011;13816;53.628;9.950;2023-11-19T01:09:53;5.60;;;4.83;;
26040;SDS011;13816;53.628;9.950;2023-11-19T01:12:20;4.50;;;4.10;;
26040;SDS011;13816;53.628;9.950;2023-11-19T01:14:48;4.40;;;4.00;;
26040;SDS011;13816;53.628;9.950;2023-11-19T01:17:15;4.10;;;3.70;;
26040;SDS011;13816;53.628;9.950;2023-11-19T01:19:43;4.33;;;3.33;;
26040;SDS011;13816;53.628;9.950;2023-11-19T01:22:11;4.23;;;3.83;;
26040;SDS011;13816;53.628;9.950;2023-11-19T01:24:41;4.10;;;3.60;;
26040;SDS011;13816;53.628;9.950;2023-11-19T01:27:09;5.20;;;4.20;;
26040;SDS011;13816;53.628;9.950;2023-11-19T01:29:36;5.67;;;3.40;;
26040;SDS011;13816;53.628;9.950;2023-11-19T01:32:05;4.23;;;3.60;;
26040;SDS011;13816;53.628;9.950;2023-11-19T01:34:33;3.83;;;3.53;;
26040;SDS011;13816;53.628;9.950;2023-11-19T01:37:00;3.67;;;3.30;;
26040;SDS011;13816;53.628;9.950;2023-11-19T01:39:28;3.17;;;2.93;;
26040;SDS011;13816;53.628;9.950;2023-11-19T01:41:55;3.93;;;3.53;;
26040;SDS011;13816;53.628;9.950;2023-11-19T01:44:23;4.00;;;3.43;;
26040;SDS011;13816;53.628;9.950;2023-11-19T01:46:50;5.80;;;3.47;;
26040;SDS011;13816;53.628;9.950;2023-11-19T01:49:18;3.30;;;3.00;;
26040;SDS011;13816;53.628;9.950;2023-11-19T01:51:46;4.50;;;3.07;;
26040;SDS011;13816;53.628;9.950;2023-11-19T01:54:14;4.20;;;3.80;;
26040;SDS011;13816;53.628;9.950;2023-11-19T01:56:43;4.57;;;3.33;;
26040;SDS011;13816;53.628;9.950;2023-11-19T01:59:10;4.17;;;3.80;;
26040;SDS011;13816;53.628;9.950;2023-11-19T02:01:40;3.33;;;2.70;;
26040;SDS011;13816;53.628;9.950;2023-11-19T02:04:08;3.60;;;3.13;;
26040;SDS011;13816;53.628;9.950;2023-11-19T02:06:39;2.33;;;2.23;;
26040;SDS011;13816;53.628;9.950;2023-11-19T02:09:08;2.80;;;2.60;;
26040;SDS011;13816;53.628;9.950;2023-11-19T02:11:36;2.87;;;2.60;;
26040;SDS011;13816;53.628;9.950;2023-11-19T02:14:04;2.70;;;2.30;;
26040;SDS011;13816;53.628;9.950;2023-11-19T02:16:31;3.53;;;3.00;;
26040;SDS011;13816;53.628;9.950;2023-11-19T02:18:58;2.57;;;2.30;;
26040;SDS011;13816;53.628;9.950;2023-11-19T02:21:26;3.70;;;2.47;;
26040;SDS011;13816;53.628;9.950;2023-11-19T02:23:53;3.60;;;2.30;;
26040;SDS011;13816;53.628;9.950;2023-11-19T02:29:05;3.67;;;2.50;;
26040;SDS011;13816;53.628;9.950;2023-11-19T02:31:34;2.90;;;2.70;;
26040;SDS011;13816;53.628;9.950;2023-11-19T02:34:02;3.47;;;2.40;;
26040;SDS011;13816;53.628;9.950;2023-11-19T02:36:30;3.40;;;2.00;;
26040;SDS011;13816;53.628;9.950;2023-11-19T02:38:58;2.53;;;2.33;;
26040;SDS011;13816;53.628;9.950;2023-11-19T02:41:26;3.30;;;2.20;;
26040;SDS011;13816;53.628;9.950;2023-11-19T02:43:53;3.13;;;2.83;;
26040;SDS011;13816;53.628;9.950;2023-11-19T02:46:21;3.90;;;2.70;;
26040;SDS011;13816;53.628;9.950;2023-11-19T02:48:48;2.53;;;2.33;;
26040;SDS011;13816;53.628;9.950;2023-11-19T02:51:16;3.90;;;2.60;;
26040;SDS011;13816;53.628;9.950;2023-11-19T02:53:45;2.70;;;2.50;;
26040;SDS011;13816;53.628;9.950;2023-11-19T02:56:14;2.53;;;2.33;;
26040;SDS011;13816;53.628;9.950;2023-11-19T02:58:46;4.60;;;3.40;;
26040;SDS011;13816;53.628;9.950;2023-11-19T03:01:21;3.63;;;3.33;;
26040;SDS011;13816;53.628;9.950;2023-11-19T03:03:59;4.27;;;3.90;;
26040;SDS011;13816;53.628;9.950;2023-11-19T03:06:28;3.73;;;3.33;;
26040;SDS011;13816;53.628;9.950;2023-11-19T03:08:56;3.33;;;3.03;;
26040;SDS011;13816;53.628;9.950;2023-11-19T03:11:24;6.40;;;3.00;;
26040;SDS011;13816;53.628;9.950;2023-11-19T03:13:51;6.00;;;3.90;;
26040;SDS011;13816;53.628;9.950;2023-11-19T03:16:19;4.33;;;3.80;;
26040;SDS011;13816;53.628;9.950;2023-11-19T03:18:46;3.63;;;3.10;;
26040;SDS011;13816;53.628;9.950;2023-11-19T03:21:14;3.10;;;2.90;;
26040;SDS011;13816;53.628;9.950;2023-11-19T03:23:41;4.33;;;3.23;;
26040;SDS011;13816;53.628;9.950;2023-11-19T03:26:12;3.40;;;3.13;;
26040;SDS011;13816;53.628;9.950;2023-11-19T03:28:40;3.70;;;3.37;;
26040;SDS011;13816;53.628;9.950;2023-11-19T03:31:07;3.97;;;3.67;;
26040;SDS011;13816;53.628;9.950;2023-11-19T03:33:35;5.10;;;3.23;;
26040;SDS011;13816;53.628;9.950;2023-11-19T03:36:04;3.67;;;3.37;;
26040;SDS011;13816;53.628;9.950;2023-11-19T03:38:32;6.40;;;3.60;;
26040;SDS011;13816;53.628;9.950;2023-11-19T03:40:59;3.20;;;3.00;;
26040;SDS011;13816;53.628;9.950;2023-11-19T03:43:27;3.57;;;3.27;;
26040;SDS011;13816;53.628;9.950;2023-11-19T03:45:54;3.90;;;3.60;;
26040;SDS011;13816;53.628;9.950;2023-11-19T03:48:22;4.00;;;3.60;;
26040;SDS011;13816;53.628;9.950;2023-11-19T03:50:50;3.30;;;3.07;;
26040;SDS011;13816;53.628;9.950;2023-11-19T03:53:17;3.30;;;3.00;;
26040;SDS011;13816;53.628;9.950;2023-11-19T03:55:45;9.50;;;3.27;;
26040;SDS011;13816;53.628;9.950;2023-11-19T03:58:13;3.40;;;3.10;;
26040;SDS011;13816;53.628;9.950;2023-11-19T04:00:40;3.40;;;3.10;;
26040;SDS011;13816;53.628;9.950;2023-11-19T04:03:07;7.60;;;3.50;;
26040;SDS011;13816;53.628;9.950;2023-11-19T04:05:36;3.67;;;3.00;;
26040;SDS011;13816;53.628;9.950;2023-11-19T04:08:04;4.53;;;3.30;;
26040;SDS011;13816;53.628;9.950;2023-11-19T04:10:31;3.80;;;3.50;;
26040;SDS011;13816;53.628;9.950;2023-11-19T04:13:00;3.70;;;3.40;;
26040;SDS011;13816;53.628;9.950;2023-11-19T04:15:27;6.87;;;3.70;;
26040;SDS011;13816;53.628;9.950;2023-11-19T04:17:55;4.50;;;4.10;;
26040;SDS011;13816;53.628;9.950;2023-11-19T04:20:23;7.73;;;4.47;;
26040;SDS011;13816;53.628;9.950;2023-11-19T04:22:52;5.03;;;4.53;;
26040;SDS011;13816;53.628;9.950;2023-11-19T04:25:20;4.47;;;3.87;;
26040;SDS011;13816;53.628;9.950;2023-11-19T04:27:50;5.00;;;4.50;;
26040;SDS011;13816;53.628;9.950;2023-11-19T04:30:17;5.30;;;4.40;;
26040;SDS011;13816;53.628;9.950;2023-11-19T04:32:45;8.10;;;4.97;;
26040;SDS011;13816;53.628;9.950;2023-11-19T04:35:12;8.03;;;4.57;;
26040;SDS011;13816;53.628;9.950;2023-11-19T04:37:41;10.20;;;5.13;;
26040;SDS011;13816;53.628;9.950;2023-11-19T04:40:08;9.50;;;5.60;;
26040;SDS011;13816;53.628;9.950;2023-11-19T04:42:36;6.63;;;5.37;;
26040;SDS011;13816;53.628;9.950;2023-11-19T04:45:04;9.97;;;5.87;;
26040;SDS011;13816;53.628;9.950;2023-11-19T04:47:33;9.90;;;6.10;;
26040;SDS011;13816;53.628;9.950;2023-11-19T04:50:01;6.73;;;6.03;;
26040;SDS011;13816;53.628;9.950;2023-11-19T04:52:29;7.50;;;6.80;;
26040;SDS011;13816;53.628;9.950;2023-11-19T04:54:58;7.50;;;6.70;;
26040;SDS011;13816;53.628;9.950;2023-11-19T04:57:26;9.17;;;6.80;;
26040;SDS011;13816;53.628;9.950;2023-11-19T04:59:53;7.90;;;6.83;;
26040;SDS011;13816;53.628;9.950;2023-11-19T05:02:21;8.97;;;7.70;;
26040;SDS011;13816;53.628;9.950;2023-11-19T05:04:48;8.00;;;7.20;;
26040;SDS011;13816;53.628;9.950;2023-11-19T05:07:16;9.53;;;7.73;;
26040;SDS011;13816;53.628;9.950;2023-11-19T05:09:45;13.30;;;9.00;;
26040;SDS011;13816;53.628;9.950;2023-11-19T05:12:13;13.47;;;9.20;;
26040;SDS011;13816;53.628;9.950;2023-11-19T05:14:42;12.17;;;9.47;;
26040;SDS011;13816;53.628;9.950;2023-11-19T05:17:18;11.90;;;10.17;;
26040;SDS011;13816;53.628;9.950;2023-11-19T05:19:46;19.53;;;11.40;;
26040;SDS011;13816;53.628;9.950;2023-11-19T05:22:15;14.43;;;10.67;;
26040;SDS011;13816;53.628;9.950;2023-11-19T05:24:42;16.07;;;12.10;;
26040;SDS011;13816;53.628;9.950;2023-11-19T05:27:10;17.63;;;13.10;;
26040;SDS011;13816;53.628;9.950;2023-11-19T05:29:39;20.53;;;12.30;;
26040;SDS011;13816;53.628;9.950;2023-11-19T05:32:08;20.40;;;13.57;;
26040;SDS011;13816;53.628;9.950;2023-11-19T05:34:35;20.70;;;13.37;;
26040;SDS011;13816;53.628;9.950;2023-11-19T05:37:03;31.40;;;16.70;;
26040;SDS011;13816;53.628;9.950;2023-11-19T05:39:32;30.83;;;16.83;;
26040;SDS011;13816;53.628;9.950;2023-11-19T05:41:59;31.60;;;17.33;;
26040;SDS011;13816;53.628;9.950;2023-11-19T05:44:27;33.67;;;17.97;;
26040;SDS011;13816;53.628;9.950;2023-11-19T05:46:54;33.23;;;18.60;;
26040;SDS011;13816;53.628;9.950;2023-11-19T05:49:22;35.33;;;19.40;;
26040;SDS011;13816;53.628;9.950;2023-11-19T05:51:49;38.70;;;20.80;;
26040;SDS011;13816;53.628;9.950;2023-11-19T05:54:17;39.30;;;21.33;;
26040;SDS011;13816;53.628;9.950;2023-11-19T05:56:47;50.23;;;23.80;;
26040;SDS011;13816;53.628;9.950;2023-11-19T05:59:15;58.27;;;24.40;;
26040;SDS011;13816;53.628;9.950;2023-11-19T06:01:44;43.57;;;23.23;;
26040;SDS011;13816;53.628;9.950;2023-11-19T06:04:11;42.97;;;21.00;;
26040;SDS011;13816;53.628;9.950;2023-11-19T06:06:39;54.00;;;22.50;;
26040;SDS011;13816;53.628;9.950;2023-11-19T06:09:07;56.13;;;23.53;;
26040;SDS011;13816;53.628;9.950;2023-11-19T06:11:38;45.00;;;22.30;;
26040;SDS011;13816;53.628;9.950;2023-11-19T06:14:06;46.60;;;23.10;;
26040;SDS011;13816;53.628;9.950;2023-11-19T06:16:33;47.13;;;21.50;;
26040;SDS011;13816;53.628;9.950;2023-11-19T06:19:03;52.37;;;22.30;;
26040;SDS011;13816;53.628;9.950;2023-11-19T06:21:30;61.73;;;23.03;;
26040;SDS011;13816;53.628;9.950;2023-11-19T06:23:58;46.20;;;21.93;;
26040;SDS011;13816;53.628;9.950;2023-11-19T06:26:25;57.43;;;19.93;;
26040;SDS011;13816;53.628;9.950;2023-11-19T06:28:54;44.27;;;19.10;;
26040;SDS011;13816;53.628;9.950;2023-11-19T06:31:21;45.07;;;19.97;;
26040;SDS011;13816;53.628;9.950;2023-11-19T06:33:48;52.53;;;20.10;;
26040;SDS011;13816;53.628;9.950;2023-11-19T06:36:16;45.97;;;18.87;;
26040;SDS011;13816;53.628;9.950;2023-11-19T06:38:43;51.40;;;19.30;;
26040;SDS011;13816;53.628;9.950;2023-11-19T06:41:11;40.40;;;16.40;;
26040;SDS011;13816;53.628;9.950;2023-11-19T06:43:41;44.40;;;15.23;;
26040;SDS011;13816;53.628;9.950;2023-11-19T06:46:16;39.93;;;15.40;;
26040;SDS011;13816;53.628;9.950;2023-11-19T06:48:44;46.57;;;15.50;;
26040;SDS011;13816;53.628;9.950;2023-11-19T06:51:12;47.80;;;13.93;;
26040;SDS011;13816;53.628;9.950;2023-11-19T06:53:40;49.30;;;13.60;;
26040;SDS011;13816;53.628;9.950;2023-11-19T06:56:23;45.70;;;12.60;;
26040;SDS011;13816;53.628;9.950;2023-11-19T06:58:54;39.93;;;12.60;;
26040;SDS011;13816;53.628;9.950;2023-11-19T07:01:21;35.97;;;11.80;;
26040;SDS011;13816;53.628;9.950;2023-11-19T07:03:49;37.47;;;11.50;;
26040;SDS011;13816;53.628;9.950;2023-11-19T07:06:17;43.50;;;11.23;;
26040;SDS011;13816;53.628;9.950;2023-11-19T07:08:45;38.93;;;11.40;;
26040;SDS011;13816;53.628;9.950;2023-11-19T07:11:13;34.40;;;10.90;;
26040;SDS011;13816;53.628;9.950;2023-11-19T07:13:42;44.40;;;12.17;;
26040;SDS011;13816;53.628;9.950;2023-11-19T07:16:10;53.67;;;11.03;;
26040;SDS011;13816;53.628;9.950;2023-11-19T07:18:37;43.87;;;10.90;;
26040;SDS011;13816;53.628;9.950;2023-11-19T07:21:05;41.90;;;9.67;;
26040;SDS011;13816;53.628;9.950;2023-11-19T07:23:33;44.23;;;9.10;;
26040;SDS011;13816;53.628;9.950;2023-11-19T07:26:01;41.20;;;9.63;;
26040;SDS011;13816;53.628;9.950;2023-11-19T07:28:31;40.37;;;8.10;;
26040;SDS011;13816;53.628;9.950;2023-11-19T07:30:58;43.27;;;8.67;;
26040;SDS011;13816;53.628;9.950;2023-11-19T07:33:26;30.37;;;8.17;;
26040;SDS011;13816;53.628;9.950;2023-11-19T07:35:53;30.40;;;6.57;;
26040;SDS011;13816;53.628;9.950;2023-11-19T07:38:20;41.60;;;8.30;;
26040;SDS011;13816;53.628;9.950;2023-11-19T07:40:49;34.30;;;7.33;;
26040;SDS011;13816;53.628;9.950;2023-11-19T07:43:19;28.23;;;6.13;;
26040;SDS011;13816;53.628;9.950;2023-11-19T07:45:46;26.80;;;7.27;;
26040;SDS011;13816;53.628;9.950;2023-11-19T07:48:14;38.70;;;6.00;;
26040;SDS011;13816;53.628;9.950;2023-11-19T07:50:42;37.40;;;7.27;;
26040;SDS011;13816;53.628;9.950;2023-11-19T07:53:12;41.47;;;8.37;;
26040;SDS011;13816;53.628;9.950;2023-11-19T07:55:40;39.90;;;6.23;;
26040;SDS011;13816;53.628;9.950;2023-11-19T07:58:07;36.60;;;6.03;;
26040;SDS011;13816;53.628;9.950;2023-11-19T08:00:35;39.90;;;6.70;;
26040;SDS011;13816;53.628;9.950;2023-11-19T08:03:03;46.07;;;8.60;;
26040;SDS011;13816;53.628;9.950;2023-11-19T08:05:31;44.43;;;7.50;;
26040;SDS011;13816;53.628;9.950;2023-11-19T08:07:59;41.53;;;7.63;;
26040;SDS011;13816;53.628;9.950;2023-11-19T08:10:26;44.27;;;7.27;;
26040;SDS011;13816;53.628;9.950;2023-11-19T08:12:53;43.87;;;6.80;;
26040;SDS011;13816;53.628;9.950;2023-11-19T08:15:21;34.53;;;6.63;;
26040;SDS011;13816;53.628;9.950;2023-11-19T08:17:51;36.63;;;6.57;;
26040;SDS011;13816;53.628;9.950;2023-11-19T08:20:19;48.70;;;7.40;;
26040;SDS011;13816;53.628;9.950;2023-11-19T08:22:47;51.60;;;7.40;;
26040;SDS011;13816;53.628;9.950;2023-11-19T08:25:15;41.93;;;8.00;;
26040;SDS011;13816;53.628;9.950;2023-11-19T08:27:42;51.03;;;8.40;;
26040;SDS011;13816;53.628;9.950;2023-11-19T08:30:10;42.30;;;7.70;;
26040;SDS011;13816;53.628;9.950;2023-11-19T08:32:37;42.03;;;8.07;;
26040;SDS011;13816;53.628;9.950;2023-11-19T08:35:05;44.60;;;7.83;;
26040;SDS011;13816;53.628;9.950;2023-11-19T08:37:33;46.80;;;8.30;;
26040;SDS011;13816;53.628;9.950;2023-11-19T08:40:02;35.47;;;5.30;;
26040;SDS011;13816;53.628;9.950;2023-11-19T08:42:31;29.07;;;5.77;;
26040;SDS011;13816;53.628;9.950;2023-11-19T08:44:58;47.23;;;7.70;;
26040;SDS011;13816;53.628;9.950;2023-11-19T08:47:25;49.40;;;7.70;;
26040;SDS011;13816;53.628;9.950;2023-11-19T08:49:53;37.10;;;6.30;;
26040;SDS011;13816;53.628;9.950;2023-11-19T08:52:24;35.93;;;6.70;;
26040;SDS011;13816;53.628;9.950;2023-11-19T08:54:51;38.13;;;7.00;;
26040;SDS011;13816;53.628;9.950;2023-11-19T08:57:19;35.47;;;8.03;;
26040;SDS011;13816;53.628;9.950;2023-11-19T08:59:46;40.67;;;7.27;;
26040;SDS011;13816;53.628;9.950;2023-11-19T09:02:14;36.43;;;7.30;;
26040;SDS011;13816;53.628;9.950;2023-11-19T09:04:41;41.97;;;7.20;;
26040;SDS011;13816;53.628;9.950;2023-11-19T09:07:09;35.23;;;6.90;;
26040;SDS011;13816;53.628;9.950;2023-11-19T09:09:36;49.67;;;7.90;;
26040;SDS011;13816;53.628;9.950;2023-11-19T09:12:04;43.50;;;7.17;;
26040;SDS011;13816;53.628;9.950;2023-11-19T09:14:31;30.90;;;7.23;;
26040;SDS011;13816;53.628;9.950;2023-11-19T09:16:59;45.50;;;7.03;;
26040;SDS011;13816;53.628;9.950;2023-11-19T09:19:27;43.60;;;7.23;;
26040;SDS011;13816;53.628;9.950;2023-11-19T09:21:54;43.40;;;7.80;;
26040;SDS011;13816;53.628;9.950;2023-11-19T09:24:22;46.87;;;7.90;;
26040;SDS011;13816;53.628;9.950;2023-11-19T09:26:49;44.73;;;7.67;;
26040;SDS011;13816;53.628;9.950;2023-11-19T09:29:17;41.40;;;7.00;;
26040;SDS011;13816;53.628;9.950;2023-11-19T09:31:44;42.77;;;7.90;;
26040;SDS011;13816;53.628;9.950;2023-11-19T09:34:12;41.27;;;8.63;;
26040;SDS011;13816;53.628;9.950;2023-11-19T09:36:39;35.47;;;7.47;;
26040;SDS011;13816;53.628;9.950;2023-11-19T09:39:11;38.80;;;8.63;;
26040;SDS011;13816;53.628;9.950;2023-11-19T09:41:41;48.80;;;7.40;;
26040;SDS011;13816;53.628;9.950;2023-11-19T09:44:09;46.63;;;8.30;;
26040;SDS011;13816;53.628;9.950;2023-11-19T09:46:38;47.27;;;7.33;;
26040;SDS011;13816;53.628;9.950;2023-11-19T09:49:09;43.37;;;10.50;;
26040;SDS011;13816;53.628;9.950;2023-11-19T09:51:37;39.90;;;8.20;;
26040;SDS011;13816;53.628;9.950;2023-11-19T09:54:04;41.27;;;8.30;;
26040;SDS011;13816;53.628;9.950;2023-11-19T09:56:32;39.83;;;6.70;;
26040;SDS011;13816;53.628;9.950;2023-11-19T09:59:00;41.90;;;7.90;;
26040;SDS011;13816;53.628;9.950;2023-11-19T10:01:28;40.57;;;7.47;;
26040;SDS011;13816;53.628;9.950;2023-11-19T10:03:58;39.67;;;8.30;;
26040;SDS011;13816;53.628;9.950;2023-11-19T10:06:26;49.93;;;8.30;;
26040;SDS011;13816;53.628;9.950;2023-11-19T10:08:53;52.90;;;9.00;;
26040;SDS011;13816;53.628;9.950;2023-11-19T10:11:21;57.37;;;10.57;;
26040;SDS011;13816;53.628;9.950;2023-11-19T10:13:49;44.10;;;8.20;;
26040;SDS011;13816;53.628;9.950;2023-11-19T10:16:17;51.57;;;9.10;;
26040;SDS011;13816;53.628;9.950;2023-11-19T10:18:45;37.73;;;7.17;;
26040;SDS011;13816;53.628;9.950;2023-11-19T10:21:13;40.10;;;8.07;;
26040;SDS011;13816;53.628;9.950;2023-11-19T10:23:47;36.40;;;7.07;;
26040;SDS011;13816;53.628;9.950;2023-11-19T10:26:16;43.73;;;8.63;;
26040;SDS011;13816;53.628;9.950;2023-11-19T10:28:43;49.20;;;9.33;;
26040;SDS011;13816;53.628;9.950;2023-11-19T10:31:13;35.37;;;8.97;;
26040;SDS011;13816;53.628;9.950;2023-11-19T10:33:41;38.83;;;7.13;;
26040;SDS011;13816;53.628;9.950;2023-11-19T10:36:10;41.53;;;8.33;;
26040;SDS011;13816;53.628;9.950;2023-11-19T10:38:39;61.47;;;8.90;;
26040;SDS011;13816;53.628;9.950;2023-11-19T10:41:07;47.40;;;8.00;;
26040;SDS011;13816;53.628;9.950;2023-11-19T10:43:44;51.23;;;9.43;;
26040;SDS011;13816;53.628;9.950;2023-11-19T10:46:12;47.50;;;7.70;;
26040;SDS011;13816;53.628;9.950;2023-11-19T10:48:40;36.50;;;7.03;;
26040;SDS011;13816;53.628;9.950;2023-11-19T10:51:07;54.63;;;8.83;;
26040;SDS011;13816;53.628;9.950;2023-11-19T10:53:37;31.63;;;6.60;;
26040;SDS011;13816;53.628;9.950;2023-11-19T10:56:06;34.80;;;7.10;;
26040;SDS011;13816;53.628;9.950;2023-11-19T10:58:39;41.77;;;8.23;;
26040;SDS011;13816;53.628;9.950;2023-11-19T11:01:18;41.00;;;8.40;;
26040;SDS011;13816;53.628;9.950;2023-11-19T11:03:52;39.83;;;7.67;;
26040;SDS011;13816;53.628;9.950;2023-11-19T11:06:21;32.97;;;6.53;;
26040;SDS011;13816;53.628;9.950;2023-11-19T11:08:51;43.90;;;8.30;;
26040;SDS011;13816;53.628;9.950;2023-11-19T11:11:19;36.03;;;7.33;;
26040;SDS011;13816;53.628;9.950;2023-11-19T11:13:50;40.17;;;7.37;;
26040;SDS011;13816;53.628;9.950;2023-11-19T11:16:18;48.10;;;8.30;;
26040;SDS011;13816;53.628;9.950;2023-11-19T11:18:46;53.20;;;8.90;;
26040;SDS011;13816;53.628;9.950;2023-11-19T11:21:17;31.07;;;6.60;;
26040;SDS011;13816;53.628;9.950;2023-11-19T11:28:48;46.70;;;7.70;;
26040;SDS011;13816;53.628;9.950;2023-11-19T11:36:36;35.87;;;5.90;;
26040;SDS011;13816;53.628;9.950;2023-11-19T11:39:11;35.80;;;6.60;;
26040;SDS011;13816;53.628;9.950;2023-11-19T11:41:39;42.60;;;7.57;;
26040;SDS011;13816;53.628;9.950;2023-11-19T11:44:07;40.10;;;6.63;;
26040;SDS011;13816;53.628;9.950;2023-11-19T11:54:14;34.60;;;6.50;;
26040;SDS011;13816;53.628;9.950;2023-11-19T11:57:13;38.17;;;7.73;;
26040;SDS011;13816;53.628;9.950;2023-11-19T11:59:43;48.23;;;8.33;;
26040;SDS011;13816;53.628;9.950;2023-11-19T12:02:12;39.67;;;7.83;;
26040;SDS011;13816;53.628;9.950;2023-11-19T12:04:40;46.83;;;7.53;;
26040;SDS011;13816;53.628;9.950;2023-11-19T12:07:08;39.77;;;7.73;;
26040;SDS011;13816;53.628;9.950;2023-11-19T12:09:39;45.30;;;7.90;;
26040;SDS011;13816;53.628;9.950;2023-11-19T12:12:11;53.17;;;8.27;;
26040;SDS011;13816;53.628;9.950;2023-11-19T12:15:13;46.53;;;8.00;;
26040;SDS011;13816;53.628;9.950;2023-11-19T12:20:01;41.90;;;8.80;;
26040;SDS011;13816;53.628;9.950;2023-11-19T12:22:29;48.33;;;8.60;;
26040;SDS011;13816;53.628;9.950;2023-11-19T12:24:56;58.40;;;9.97;;
26040;SDS011;13816;53.628;9.950;2023-11-19T12:27:24;43.93;;;7.53;;
26040;SDS011;13816;53.628;9.950;2023-11-19T12:29:52;45.43;;;8.23;;
26040;SDS011;13816;53.628;9.950;2023-11-19T12:32:20;43.03;;;9.20;;
26040;SDS011;13816;53.628;9.950;2023-11-19T12:34:48;41.33;;;7.20;;
26040;SDS011;13816;53.628;9.950;2023-11-19T12:37:15;39.10;;;6.80;;
26040;SDS011;13816;53.628;9.950;2023-11-19T12:39:43;29.33;;;6.37;;
26040;SDS011;13816;53.628;9.950;2023-11-19T12:42:10;51.87;;;9.27;;
26040;SDS011;13816;53.628;9.950;2023-11-19T12:44:39;35.93;;;5.60;;
26040;SDS011;13816;53.628;9.950;2023-11-19T12:47:06;41.30;;;6.93;;
26040;SDS011;13816;53.628;9.950;2023-11-19T12:49:34;37.43;;;6.67;;
26040;SDS011;13816;53.628;9.950;2023-11-19T12:52:02;34.83;;;6.53;;
26040;SDS011;13816;53.628;9.950;2023-11-19T12:54:34;34.13;;;7.30;;
26040;SDS011;13816;53.628;9.950;2023-11-19T12:57:02;42.50;;;7.20;;
26040;SDS011;13816;53.628;9.950;2023-11-19T12:59:29;39.60;;;6.30;;
26040;SDS011;13816;53.628;9.950;2023-11-19T13:01:57;39.43;;;7.10;;
26040;SDS011;13816;53.628;9.950;2023-11-19T13:04:31;35.80;;;8.80;;
26040;SDS011;13816;53.628;9.950;2023-11-19T13:06:58;35.60;;;7.23;;
26040;SDS011;13816;53.628;9.950;2023-11-19T13:09:29;40.63;;;6.90;;
26040;SDS011;13816;53.628;9.950;2023-11-19T13:11:57;36.70;;;7.53;;
26040;SDS011;13816;53.628;9.950;2023-11-19T13:14:35;52.13;;;7.23;;
26040;SDS011;13816;53.628;9.950;2023-11-19T13:17:08;39.20;;;6.77;;
26040;SDS011;13816;53.628;9.950;2023-11-19T13:19:36;47.47;;;8.50;;
26040;SDS011;13816;53.628;9.950;2023-11-19T13:22:03;29.87;;;7.37;;
26040;SDS011;13816;53.628;9.950;2023-11-19T13:24:31;29.90;;;6.73;;
26040;SDS011;13816;53.628;9.950;2023-11-19T13:26:58;47.27;;;8.20;;
26040;SDS011;13816;53.628;9.950;2023-11-19T13:29:26;46.73;;;8.50;;
26040;SDS011;13816;53.628;9.950;2023-11-19T13:31:56;31.83;;;6.53;;
26040;SDS011;13816;53.628;9.950;2023-11-19T13:34:23;48.83;;;8.00;;
26040;SDS011;13816;53.628;9.950;2023-11-19T13:36:51;42.83;;;7.93;;
26040;SDS011;13816;53.628;9.950;2023-11-19T13:39:18;36.57;;;5.73;;
26040;SDS011;13816;53.628;9.950;2023-11-19T13:41:49;44.87;;;11.10;;
26040;SDS011;13816;53.628;9.950;2023-11-19T13:44:17;43.77;;;7.20;;
26040;SDS011;13816;53.628;9.950;2023-11-19T13:46:45;31.07;;;6.73;;
26040;SDS011;13816;53.628;9.950;2023-11-19T13:49:13;40.70;;;7.57;;
26040;SDS011;13816;53.628;9.950;2023-11-19T13:51:42;32.80;;;6.60;;
26040;SDS011;13816;53.628;9.950;2023-11-19T13:54:09;45.27;;;7.37;;
26040;SDS011;13816;53.628;9.950;2023-11-19T13:56:39;41.60;;;8.00;;
26040;SDS011;13816;53.628;9.950;2023-11-19T13:59:07;36.03;;;6.90;;
26040;SDS011;13816;53.628;9.950;2023-11-19T14:01:35;30.77;;;6.53;;
26040;SDS011;13816;53.628;9.950;2023-11-19T14:04:03;37.80;;;7.77;;
26040;SDS011;13816;53.628;9.950;2023-11-19T14:06:30;43.07;;;7.90;;
26040;SDS011;13816;53.628;9.950;2023-11-19T14:08:58;32.13;;;5.80;;
26040;SDS011;13816;53.628;9.950;2023-11-19T14:11:26;45.73;;;8.40;;
26040;SDS011;13816;53.628;9.950;2023-11-19T14:13:53;41.03;;;7.93;;
26040;SDS011;13816;53.628;9.950;2023-11-19T14:16:20;37.70;;;7.03;;
26040;SDS011;13816;53.628;9.950;2023-11-19T14:18:48;46.83;;;7.20;;
26040;SDS011;13816;53.628;9.950;2023-11-19T14:21:15;35.80;;;8.20;;
26040;SDS011;13816;53.628;9.950;2023-11-19T14:23:43;39.37;;;6.67;;
26040;SDS011;13816;53.628;9.950;2023-11-19T14:26:11;41.67;;;7.93;;
26040;SDS011;13816;53.628;9.950;2023-11-19T14:28:40;36.10;;;7.63;;
26040;SDS011;13816;53.628;9.950;2023-11-19T14:31:10;37.00;;;6.80;;
26040;SDS011;13816;53.628;9.950;2023-11-19T14:33:37;40.57;;;6.67;;
26040;SDS011;13816;53.628;9.950;2023-11-19T14:36:05;29.90;;;6.77;;
26040;SDS011;13816;53.628;9.950;2023-11-19T14:38:33;30.77;;;5.47;;
26040;SDS011;13816;53.628;9.950;2023-11-19T14:41:01;18.53;;;4.63;;
26040;SDS011;13816;53.628;9.950;2023-11-19T14:43:28;16.23;;;3.57;;
26040;SDS011;13816;53.628;9.950;2023-11-19T14:45:56;13.10;;;3.07;;
26040;SDS011;13816;53.628;9.950;2023-11-19T14:48:23;10.90;;;2.60;;
26040;SDS011;13816;53.628;9.950;2023-11-19T14:50:51;12.10;;;2.50;;
26040;SDS011;13816;53.628;9.950;2023-11-19T14:53:18;10.90;;;2.77;;
26040;SDS011;13816;53.628;9.950;2023-11-19T14:55:46;6.87;;;1.90;;
26040;SDS011;13816;53.628;9.950;2023-11-19T14:58:13;5.30;;;2.23;;
26040;SDS011;13816;53.628;9.950;2023-11-19T15:00:42;9.83;;;2.47;;
26040;SDS011;13816;53.628;9.950;2023-11-19T15:03:12;9.27;;;2.50;;
26040;SDS011;13816;53.628;9.950;2023-11-19T15:05:40;12.63;;;3.10;;
26040;SDS011;13816;53.628;9.950;2023-11-19T15:08:07;10.90;;;3.17;;